createdAt,value
2018-06-03T00:01:14.612Z,76.12
2018-06-03T00:03:43.428Z,75.92
2018-06-03T00:06:12.225Z,75.87
2018-06-03T00:08:41.088Z,75.98
2018-06-03T00:11:09.880Z,75.77
2018-06-03T00:13:38.764Z,76.81
2018-06-03T00:16:07.553Z,76.69
2018-06-03T00:18:36.377Z,75.93
2018-06-03T00:21:16.530Z,75.92
2018-06-03T00:23:45.363Z,76.21
2018-06-03T00:26:14.494Z,76.27
2018-06-03T00:28:43.541Z,76.05
2018-06-03T00:31:12.616Z,76.56
2018-06-03T00:33:41.717Z,76.43
2018-06-03T00:36:22.172Z,77.12
2018-06-03T00:38:51.292Z,76.64
2018-06-03T00:41:20.365Z,77.02
2018-06-03T00:43:49.464Z,76.62
2018-06-03T00:46:18.559Z,77.63
2018-06-03T00:48:47.657Z,77.12
2018-06-03T00:51:16.745Z,76.96
2018-06-03T00:53:45.849Z,76.47
2018-06-03T00:56:25.064Z,76.53
2018-06-03T00:58:54.177Z,77.08
2018-06-03T01:01:23.256Z,76.97
2018-06-03T01:03:52.369Z,76.52
2018-06-03T01:06:21.457Z,76.63
2018-06-03T01:08:50.562Z,77.37
2018-06-03T01:11:19.653Z,77.22
2018-06-03T01:13:48.764Z,77.49
2018-06-03T01:16:17.849Z,77.17
2018-06-03T01:18:46.964Z,76.71
2018-06-03T01:21:16.061Z,76.74
2018-06-03T01:23:45.152Z,76.68
2018-06-03T01:26:14.276Z,77.73
2018-06-03T01:28:43.353Z,76.83
2018-06-03T01:31:12.469Z,76.38
2018-06-03T01:33:41.555Z,76.77
2018-06-03T01:36:10.675Z,76.62
2018-06-03T01:38:39.801Z,76.64
2018-06-03T01:41:08.905Z,76.93
2018-06-03T01:43:37.992Z,76.45
2018-06-03T01:46:07.098Z,76.64
2018-06-03T01:48:36.181Z,76.65
2018-06-03T01:51:05.409Z,76.66
2018-06-03T01:53:34.485Z,76.22
2018-06-03T01:56:03.594Z,76.26
2018-06-03T01:58:32.664Z,76.80
2018-06-03T02:01:01.766Z,76.86
2018-06-03T02:03:30.840Z,76.61
2018-06-03T02:05:59.944Z,76.27
2018-06-03T02:08:29.012Z,76.37
2018-06-03T02:10:58.111Z,76.05
2018-06-03T02:13:27.189Z,76.14
2018-06-03T02:15:56.306Z,76.43
2018-06-03T02:18:25.376Z,76.46
2018-06-03T02:20:54.475Z,76.12
2018-06-03T02:23:23.560Z,76.28
2018-06-03T02:25:52.656Z,76.52
2018-06-03T02:28:21.741Z,76.55
2018-06-03T02:30:50.861Z,76.60
2018-06-03T02:33:19.934Z,75.86
2018-06-03T02:35:49.032Z,76.66
2018-06-03T02:38:18.449Z,76.01
2018-06-03T02:40:47.548Z,76.26
2018-06-03T02:43:16.620Z,76.47
2018-06-03T02:45:45.733Z,76.63
2018-06-03T02:48:14.813Z,76.39
2018-06-03T02:50:43.916Z,76.79
2018-06-03T02:53:13.016Z,76.61
2018-06-03T02:55:42.121Z,76.37
2018-06-03T02:58:11.202Z,76.73
2018-06-03T03:00:40.309Z,76.26
2018-06-03T03:03:09.397Z,76.53
2018-06-03T03:05:38.492Z,75.99
2018-06-03T03:08:07.576Z,75.76
2018-06-03T03:10:36.686Z,75.59
2018-06-03T03:13:05.776Z,76.11
2018-06-03T03:15:34.873Z,76.08
2018-06-03T03:18:03.955Z,76.03
2018-06-03T03:20:33.057Z,76.20
2018-06-03T03:23:02.145Z,75.83
2018-06-03T03:25:31.240Z,75.76
2018-06-03T03:28:00.324Z,75.45
2018-06-03T03:30:29.432Z,75.70
2018-06-03T03:32:58.511Z,76.24
2018-06-03T03:35:27.617Z,75.97
2018-06-03T03:37:56.729Z,75.78
2018-06-03T03:40:25.845Z,75.53
2018-06-03T03:42:54.921Z,76.08
2018-06-03T03:45:24.024Z,76.20
2018-06-03T03:47:53.104Z,75.58
2018-06-03T03:50:22.217Z,76.08
2018-06-03T03:52:51.292Z,75.04
2018-06-03T03:55:20.387Z,75.57
2018-06-03T03:57:49.465Z,75.36
2018-06-03T04:00:18.589Z,76.01
2018-06-03T04:02:47.673Z,75.92
2018-06-03T04:05:16.757Z,76.05
2018-06-03T04:07:45.857Z,76.65
2018-06-03T04:10:14.936Z,76.06
2018-06-03T04:12:44.036Z,75.36
2018-06-03T04:15:13.116Z,76.30
2018-06-03T04:17:42.205Z,76.53
2018-06-03T04:20:11.285Z,76.29
2018-06-03T04:22:40.390Z,76.18
2018-06-03T04:25:09.464Z,76.47
2018-06-03T04:27:38.564Z,76.35
2018-06-03T04:30:07.641Z,75.87
2018-06-03T04:32:36.744Z,76.17
2018-06-03T04:35:05.852Z,76.81
2018-06-03T04:37:34.985Z,77.31
2018-06-03T04:40:04.073Z,77.33
2018-06-03T04:42:33.181Z,77.27
2018-06-03T04:45:02.262Z,76.71
2018-06-03T04:47:31.368Z,76.59
2018-06-03T04:50:00.445Z,76.45
2018-06-03T04:52:29.548Z,76.68
2018-06-03T04:54:58.647Z,75.86
2018-06-03T04:57:27.736Z,76.44
2018-06-03T04:59:56.816Z,75.55
2018-06-03T05:02:25.923Z,75.63
2018-06-03T05:04:55.008Z,75.67
2018-06-03T05:07:24.111Z,75.66
2018-06-03T05:09:53.206Z,75.54
2018-06-03T05:12:22.320Z,76.43
2018-06-03T05:14:51.396Z,76.29
2018-06-03T05:17:20.508Z,75.33
2018-06-03T05:19:49.589Z,75.92
2018-06-03T05:22:18.701Z,75.77
2018-06-03T05:24:47.793Z,75.13
2018-06-03T05:27:16.896Z,74.38
2018-06-03T05:29:45.968Z,74.63
2018-06-03T05:32:15.084Z,74.84
2018-06-03T05:34:44.156Z,75.49
2018-06-03T05:37:13.296Z,74.43
2018-06-03T05:39:42.389Z,75.79
2018-06-03T05:42:11.497Z,75.20
2018-06-03T05:44:40.581Z,75.77
2018-06-03T05:47:09.689Z,75.68
2018-06-03T05:49:38.773Z,75.35
2018-06-03T05:52:07.881Z,75.93
2018-06-03T05:54:36.957Z,76.16
2018-06-03T05:57:06.095Z,75.15
2018-06-03T05:59:35.177Z,75.47
2018-06-03T06:02:04.281Z,75.70
2018-06-03T06:04:33.360Z,75.77
2018-06-03T06:07:02.472Z,75.70
2018-06-03T06:09:31.564Z,75.85
2018-06-03T06:12:00.661Z,75.88
2018-06-03T06:14:29.737Z,75.39
2018-06-03T06:16:58.841Z,75.81
2018-06-03T06:19:27.925Z,75.11
2018-06-03T06:21:57.040Z,75.23
2018-06-03T06:24:26.124Z,74.58
2018-06-03T06:26:55.244Z,74.72
2018-06-03T06:29:24.357Z,74.44
2018-06-03T06:31:53.459Z,74.40
2018-06-03T06:34:22.540Z,74.27
2018-06-03T06:36:51.651Z,73.21
2018-06-03T06:39:20.752Z,73.00
2018-06-03T06:41:49.861Z,72.78
2018-06-03T06:44:18.944Z,72.53
2018-06-03T06:46:48.030Z,72.42
2018-06-03T06:49:17.147Z,71.60
2018-06-03T06:51:46.229Z,70.85
2018-06-03T06:54:15.320Z,70.61
2018-06-03T06:56:44.400Z,70.78
2018-06-03T06:59:13.505Z,70.29
2018-06-03T07:01:42.593Z,70.28
2018-06-03T07:04:11.706Z,68.62
2018-06-03T07:06:40.790Z,69.31
2018-06-03T07:09:10.252Z,68.77
2018-06-03T07:11:39.340Z,67.19
2018-06-03T07:14:08.449Z,68.42
2018-06-03T07:16:37.533Z,68.15
2018-06-03T07:19:06.641Z,66.19
2018-06-03T07:21:35.732Z,68.33
2018-06-03T07:24:04.913Z,66.35
2018-06-03T07:26:34.106Z,67.31
2018-06-03T07:29:03.233Z,66.27
2018-06-03T07:31:32.319Z,65.27
2018-06-03T07:34:01.426Z,66.51
2018-06-03T07:36:30.549Z,63.20
2018-06-03T07:38:59.636Z,63.37
2018-06-03T07:41:28.732Z,64.56
2018-06-03T07:43:57.837Z,64.77
2018-06-03T07:46:26.927Z,64.48
2018-06-03T07:48:56.877Z,65.41
2018-06-03T07:51:25.961Z,65.12
2018-06-03T07:53:55.065Z,63.94
2018-06-03T07:56:24.144Z,63.04
2018-06-03T07:58:53.237Z,60.33
2018-06-03T08:01:22.321Z,61.30
2018-06-03T08:03:51.441Z,62.11
2018-06-03T08:06:20.513Z,61.54
2018-06-03T08:08:49.725Z,61.13
2018-06-03T08:11:18.884Z,60.48
2018-06-03T08:13:48.188Z,60.27
2018-06-03T08:16:17.296Z,61.73
2018-06-03T08:18:46.413Z,61.85
2018-06-03T08:21:15.488Z,61.36
2018-06-03T08:23:44.592Z,61.43
2018-06-03T08:26:13.668Z,60.94
2018-06-03T08:28:42.781Z,61.18
2018-06-03T08:31:11.865Z,60.25
2018-06-03T08:33:40.961Z,60.14
2018-06-03T08:36:10.051Z,60.62
2018-06-03T08:38:39.172Z,62.20
2018-06-03T08:41:08.350Z,61.96
2018-06-03T08:43:37.499Z,59.83
2018-06-03T08:46:06.586Z,61.17
2018-06-03T08:48:35.701Z,61.48
2018-06-03T08:51:04.784Z,61.58
2018-06-03T08:53:33.904Z,61.49
2018-06-03T08:56:02.996Z,61.88
2018-06-03T08:58:32.101Z,61.05
2018-06-03T09:01:01.292Z,59.22
2018-06-03T09:03:30.429Z,58.93
2018-06-03T09:05:59.513Z,57.05
2018-06-03T09:08:28.633Z,57.54
2018-06-03T09:10:57.716Z,56.71
2018-06-03T09:13:26.892Z,55.48
2018-06-03T09:15:55.976Z,56.23
2018-06-03T09:18:25.091Z,57.25
2018-06-03T09:20:54.249Z,58.11
2018-06-03T09:23:23.373Z,57.27
2018-06-03T09:25:52.469Z,57.45
2018-06-03T09:28:21.624Z,59.08
2018-06-03T09:30:54.912Z,58.30
2018-06-03T09:33:24.017Z,58.03
2018-06-03T09:35:53.128Z,57.86
2018-06-03T09:38:22.239Z,58.91
2018-06-03T09:40:51.352Z,59.66
2018-06-03T09:43:20.497Z,59.74
2018-06-03T09:45:49.607Z,59.23
2018-06-03T09:48:18.688Z,59.80
2018-06-03T09:50:47.806Z,59.19
2018-06-03T09:53:17.023Z,57.78
2018-06-03T09:55:46.111Z,57.98
2018-06-03T09:58:15.278Z,56.68
2018-06-03T10:00:44.413Z,57.57
2018-06-03T10:03:13.509Z,58.56
2018-06-03T10:05:42.687Z,58.07
2018-06-03T10:08:11.856Z,57.34
2018-06-03T10:10:41.141Z,56.23
2018-06-03T10:13:10.312Z,56.59
2018-06-03T10:15:39.509Z,56.31
2018-06-03T10:18:08.632Z,57.23
2018-06-03T10:20:37.768Z,56.98
2018-06-03T10:23:06.861Z,56.06
2018-06-03T10:25:36.045Z,55.78
2018-06-03T10:28:05.281Z,57.03
2018-06-03T10:30:34.547Z,56.73
2018-06-03T10:33:03.715Z,55.29
2018-06-03T10:35:32.826Z,56.79
2018-06-03T10:38:02.641Z,57.39
2018-06-03T10:40:31.893Z,55.55
2018-06-03T10:43:01.019Z,54.97
2018-06-03T10:45:30.813Z,55.61
2018-06-03T10:47:59.916Z,55.82
2018-06-03T10:50:29.133Z,55.36
2018-06-03T10:52:58.953Z,55.93
2018-06-03T10:55:28.138Z,55.02
2018-06-03T10:57:57.316Z,54.01
2018-06-03T11:00:26.429Z,54.89
2018-06-03T11:02:55.526Z,55.19
2018-06-03T11:05:24.720Z,54.98
2018-06-03T11:07:53.901Z,54.75
2018-06-03T11:10:23.021Z,54.18
2018-06-03T11:12:52.185Z,53.52
2018-06-03T11:15:21.408Z,53.20
2018-06-03T11:17:50.501Z,53.37
2018-06-03T11:20:19.702Z,52.79
2018-06-03T11:22:48.792Z,52.79
2018-06-03T11:25:17.911Z,52.87
2018-06-03T11:27:47.010Z,53.63
2018-06-03T11:30:16.136Z,53.69
2018-06-03T11:32:45.236Z,53.57
2018-06-03T11:35:14.359Z,52.43
2018-06-03T11:37:43.482Z,52.13
2018-06-03T11:40:12.644Z,53.10
2018-06-03T11:42:41.741Z,53.29
2018-06-03T11:45:11.052Z,54.69
2018-06-03T11:47:40.173Z,54.11
2018-06-03T11:50:09.298Z,52.58
2018-06-03T11:52:38.405Z,52.67
2018-06-03T11:55:07.547Z,51.92
2018-06-03T11:57:50.817Z,53.07
2018-06-03T12:00:19.948Z,50.42
2018-06-03T12:02:49.064Z,51.62
2018-06-03T12:05:18.182Z,50.75
2018-06-03T12:07:47.332Z,51.42
2018-06-03T12:10:16.469Z,51.88
2018-06-03T12:12:45.560Z,51.45
2018-06-03T12:15:14.716Z,52.65
2018-06-03T12:17:44.823Z,50.61
2018-06-03T12:20:13.941Z,53.16
2018-06-03T12:22:43.107Z,51.65
2018-06-03T12:25:12.232Z,51.76
2018-06-03T12:27:41.337Z,51.44
2018-06-03T12:30:10.472Z,50.73
2018-06-03T12:32:39.570Z,50.62
2018-06-03T12:35:08.683Z,50.54
2018-06-03T12:37:37.823Z,50.99
2018-06-03T12:40:06.977Z,48.92
2018-06-03T12:42:36.876Z,49.69
2018-06-03T12:45:05.985Z,49.65
2018-06-03T12:47:35.106Z,50.06
2018-06-03T12:50:04.218Z,51.20
2018-06-03T12:52:33.381Z,49.04
2018-06-03T12:55:02.487Z,50.22
2018-06-03T12:57:31.625Z,50.93
2018-06-03T13:00:00.758Z,50.39
2018-06-03T13:02:29.873Z,50.55
2018-06-03T13:04:58.983Z,50.62
2018-06-03T13:07:29.669Z,52.04
2018-06-03T13:09:59.897Z,50.75
2018-06-03T13:12:29.021Z,51.35
2018-06-03T13:14:58.121Z,52.02
2018-06-03T13:17:27.296Z,51.44
2018-06-03T13:19:56.364Z,52.35
2018-06-03T13:22:25.481Z,52.28
2018-06-03T13:24:54.581Z,52.50
2018-06-03T13:27:23.697Z,51.80
2018-06-03T13:29:52.834Z,52.40
2018-06-03T13:32:22.638Z,52.45
2018-06-03T13:34:51.748Z,52.62
2018-06-03T13:37:20.902Z,52.62
2018-06-03T13:39:50.002Z,52.04
2018-06-03T13:42:19.120Z,52.63
2018-06-03T13:44:48.230Z,51.82
2018-06-03T13:47:17.338Z,52.84
2018-06-03T13:49:46.439Z,51.70
2018-06-03T13:52:15.549Z,51.18
2018-06-03T13:54:44.694Z,52.09
2018-06-03T13:57:14.331Z,52.11
2018-06-03T13:59:43.506Z,52.27
2018-06-03T14:02:12.633Z,52.64
2018-06-03T14:04:41.790Z,53.40
2018-06-03T14:07:11.024Z,52.62
2018-06-03T14:09:40.145Z,52.59
2018-06-03T14:12:09.300Z,52.53
2018-06-03T14:14:38.477Z,51.80
2018-06-03T14:17:07.688Z,53.03
2018-06-03T14:19:36.795Z,51.97
2018-06-03T14:22:06.000Z,51.67
2018-06-03T14:24:35.157Z,51.78
2018-06-03T14:27:04.281Z,51.09
2018-06-03T14:29:33.389Z,50.55
2018-06-03T14:32:02.610Z,51.74
2018-06-03T14:34:32.585Z,52.46
2018-06-03T14:37:01.769Z,50.07
2018-06-03T14:39:30.893Z,50.95
2018-06-03T14:42:00.166Z,51.43
2018-06-03T14:44:29.296Z,52.67
2018-06-03T14:46:58.917Z,50.78
2018-06-03T14:49:28.833Z,50.69
2018-06-03T14:51:58.376Z,51.04
2018-06-03T14:54:27.479Z,49.00
2018-06-03T14:56:56.610Z,50.97
2018-06-03T14:59:25.755Z,51.94
2018-06-03T15:01:55.989Z,51.61
2018-06-03T15:04:25.712Z,52.48
2018-06-03T15:06:54.817Z,52.34
2018-06-03T15:09:23.904Z,52.17
2018-06-03T15:11:53.032Z,50.34
2018-06-03T15:14:22.418Z,48.26
2018-06-03T15:16:51.537Z,48.61
2018-06-03T15:19:20.653Z,49.53
2018-06-03T15:21:49.781Z,48.67
2018-06-03T15:24:18.918Z,49.71
2018-06-03T15:26:48.026Z,50.70
2018-06-03T15:29:17.164Z,53.02
2018-06-03T15:31:46.280Z,51.94
2018-06-03T15:34:15.406Z,52.48
2018-06-03T15:36:45.296Z,53.53
2018-06-03T15:39:14.618Z,53.62
2018-06-03T15:41:43.726Z,54.31
2018-06-03T15:44:12.883Z,53.09
2018-06-03T15:46:42.048Z,52.89
2018-06-03T15:49:11.168Z,53.29
2018-06-03T15:51:40.404Z,53.30
2018-06-03T15:54:09.517Z,53.94
2018-06-03T15:56:38.717Z,52.66
2018-06-03T15:59:08.036Z,52.61
2018-06-03T16:01:37.189Z,53.77
2018-06-03T16:04:06.296Z,53.46
2018-06-03T16:06:35.619Z,54.19
2018-06-03T16:09:06.501Z,54.33
2018-06-03T16:11:35.631Z,54.13
2018-06-03T16:14:04.740Z,54.79
2018-06-03T16:16:34.001Z,53.03
2018-06-03T16:19:03.307Z,54.15
2018-06-03T16:21:32.399Z,54.38
2018-06-03T16:24:01.936Z,55.73
2018-06-03T16:26:33.472Z,56.58
2018-06-03T16:29:02.667Z,55.84
2018-06-03T16:31:32.021Z,56.21
2018-06-03T16:34:01.081Z,56.26
2018-06-03T16:36:30.309Z,56.25
2018-06-03T16:38:59.445Z,58.03
2018-06-03T16:41:29.298Z,57.68
2018-06-03T16:43:59.446Z,58.18
2018-06-03T16:46:28.792Z,58.61
2018-06-03T16:48:58.146Z,58.51
2018-06-03T16:51:27.279Z,58.36
2018-06-03T16:53:56.702Z,58.86
2018-06-03T16:56:26.025Z,58.58
2018-06-03T16:58:55.220Z,57.42
2018-06-03T17:01:24.352Z,57.55
2018-06-03T17:03:53.477Z,58.00
2018-06-03T17:06:22.632Z,57.25
2018-06-03T17:08:52.085Z,57.44
2018-06-03T17:11:22.319Z,57.76
2018-06-03T17:13:51.733Z,57.02
2018-06-03T17:16:21.112Z,58.13
2018-06-03T17:18:50.290Z,58.18
2018-06-03T17:21:20.581Z,58.46
2018-06-03T17:23:50.022Z,57.85
2018-06-03T17:26:19.189Z,57.82
2018-06-03T17:28:48.331Z,57.57
2018-06-03T17:31:17.485Z,57.74
2018-06-03T17:33:46.618Z,57.51
2018-06-03T17:36:15.780Z,57.80
2018-06-03T17:38:44.985Z,56.91
2018-06-03T17:41:14.152Z,56.98
2018-06-03T17:43:43.301Z,57.36
2018-06-03T17:46:12.394Z,57.76
2018-06-03T17:48:41.589Z,57.22
2018-06-03T17:51:10.801Z,57.41
2018-06-03T17:53:40.152Z,58.57
2018-06-03T17:56:09.337Z,58.76
2018-06-03T17:58:38.965Z,58.02
2018-06-03T18:01:08.053Z,58.32
2018-06-03T18:03:37.577Z,58.74
2018-06-03T18:06:06.738Z,58.38
2018-06-03T18:08:36.240Z,58.35
2018-06-03T18:11:05.595Z,58.82
2018-06-03T18:13:35.776Z,57.57
2018-06-03T18:16:05.056Z,58.53
2018-06-03T18:18:34.280Z,58.31
2018-06-03T18:21:03.779Z,59.39
2018-06-03T18:23:32.996Z,59.21
2018-06-03T18:26:02.734Z,59.82
2018-06-03T18:28:32.006Z,58.09
2018-06-03T18:31:01.182Z,57.97
2018-06-03T18:33:30.277Z,58.40
2018-06-03T18:35:59.503Z,58.30
2018-06-03T18:38:28.753Z,59.01
2018-06-03T18:40:58.063Z,59.74
2018-06-03T18:43:27.175Z,59.72
2018-06-03T18:45:56.296Z,59.70
2018-06-03T18:48:25.414Z,59.62
2018-06-03T18:50:54.728Z,59.52
2018-06-03T18:53:23.825Z,59.27
2018-06-03T18:55:52.936Z,59.96
2018-06-03T18:58:22.268Z,60.14
2018-06-03T19:00:51.552Z,61.05
2018-06-03T19:03:20.794Z,61.17
2018-06-03T19:05:49.941Z,62.03
2018-06-03T19:08:19.222Z,62.06
2018-06-03T19:10:48.398Z,62.31
2018-06-03T19:13:17.541Z,63.16
2018-06-03T19:15:46.682Z,63.45
2018-06-03T19:18:15.787Z,64.57
2018-06-03T19:20:45.014Z,64.58
2018-06-03T19:23:14.162Z,64.75
2018-06-03T19:25:43.658Z,65.78
2018-06-03T19:28:12.792Z,64.95
2018-06-03T19:30:41.913Z,65.37
2018-06-03T19:33:11.563Z,65.78
2018-06-03T19:35:41.112Z,65.40
2018-06-03T19:38:10.285Z,65.62
2018-06-03T19:40:39.570Z,65.98
2018-06-03T19:43:08.625Z,66.22
2018-06-03T19:45:37.821Z,65.69
2018-06-03T19:48:06.929Z,66.04
2018-06-03T19:50:36.050Z,65.96
2018-06-03T19:53:05.766Z,66.07
2018-06-03T19:55:35.909Z,66.32
2018-06-03T19:58:05.989Z,66.48
2018-06-03T20:00:35.126Z,67.24
2018-06-03T20:03:04.297Z,68.40
2018-06-03T20:05:33.453Z,68.54
2018-06-03T20:08:02.574Z,69.44
2018-06-03T20:10:31.714Z,69.51
2018-06-03T20:13:00.809Z,69.90
2018-06-03T20:15:30.013Z,68.97
2018-06-03T20:17:59.133Z,68.36
2018-06-03T20:20:29.108Z,68.30
2018-06-03T20:22:58.241Z,68.19
2018-06-03T20:25:27.429Z,68.51
2018-06-03T20:27:56.533Z,68.18
2018-06-03T20:30:26.034Z,68.67
2018-06-03T20:32:55.185Z,68.23
2018-06-03T20:35:24.381Z,68.63
2018-06-03T20:37:53.549Z,69.27
2018-06-03T20:40:22.768Z,68.86
2018-06-03T20:42:51.875Z,69.64
2018-06-03T20:45:22.436Z,70.12
2018-06-03T20:47:52.369Z,70.10
2018-06-03T20:50:21.506Z,69.57
2018-06-03T20:52:50.673Z,69.70
2018-06-03T20:55:19.894Z,69.40
2018-06-03T20:57:49.478Z,70.30
2018-06-03T21:00:18.629Z,70.41
2018-06-03T21:02:47.761Z,70.12
2018-06-03T21:05:16.979Z,69.45
2018-06-03T21:07:46.060Z,69.96
2018-06-03T21:10:15.277Z,70.21
2018-06-03T21:12:44.362Z,70.47
2018-06-03T21:15:13.482Z,69.81
2018-06-03T21:17:42.580Z,70.58
2018-06-03T21:20:11.725Z,70.92
2018-06-03T21:22:40.832Z,71.14
2018-06-03T21:25:09.933Z,71.16
2018-06-03T21:27:39.028Z,70.64
2018-06-03T21:30:08.113Z,70.92
2018-06-03T21:32:37.237Z,70.51
2018-06-03T21:35:06.335Z,70.24
2018-06-03T21:37:35.469Z,70.31
2018-06-03T21:40:04.569Z,70.25
2018-06-03T21:42:33.677Z,70.16
2018-06-03T21:45:02.765Z,70.02
2018-06-03T21:47:31.881Z,70.37
2018-06-03T21:50:00.977Z,70.43
2018-06-03T21:52:30.092Z,70.62
2018-06-03T21:54:59.190Z,71.20
2018-06-03T21:57:28.305Z,71.32
2018-06-03T21:59:57.399Z,71.28
2018-06-03T22:02:26.546Z,71.37
2018-06-03T22:04:55.637Z,71.14
2018-06-03T22:07:24.745Z,71.08
2018-06-03T22:09:53.845Z,70.74
2018-06-03T22:12:22.972Z,70.39
2018-06-03T22:14:52.064Z,70.78
2018-06-03T22:17:21.173Z,70.84
2018-06-03T22:19:50.260Z,70.59
2018-06-03T22:22:19.373Z,71.18
2018-06-03T22:24:48.488Z,71.44
2018-06-03T22:27:17.675Z,71.95
2018-06-03T22:29:46.702Z,71.73
2018-06-03T22:32:15.819Z,71.29
2018-06-03T22:34:44.913Z,71.39
2018-06-03T22:37:14.030Z,71.61
2018-06-03T22:39:43.124Z,72.04
2018-06-03T22:42:12.229Z,71.53
2018-06-03T22:44:41.331Z,71.58
2018-06-03T22:47:10.442Z,71.78
2018-06-03T22:49:39.537Z,71.96
2018-06-03T22:52:08.649Z,71.94
2018-06-03T22:54:37.737Z,72.18
2018-06-03T22:57:47.682Z,72.50
2018-06-03T23:00:22.983Z,72.78
2018-06-03T23:02:57.366Z,73.53
2018-06-03T23:05:26.493Z,73.56
2018-06-03T23:07:55.633Z,73.67
2018-06-03T23:10:24.725Z,72.62
2018-06-03T23:12:53.845Z,72.07
2018-06-03T23:15:22.928Z,72.12
2018-06-03T23:17:52.033Z,71.81
2018-06-03T23:20:21.125Z,71.99
2018-06-03T23:22:50.236Z,72.01
2018-06-03T23:25:19.321Z,72.30
2018-06-03T23:27:48.433Z,71.78
2018-06-03T23:30:17.516Z,71.60
2018-06-03T23:32:46.621Z,71.50
2018-06-03T23:35:15.716Z,71.67
2018-06-03T23:37:44.845Z,71.28
2018-06-03T23:40:13.928Z,71.49
2018-06-03T23:42:43.029Z,71.44
2018-06-03T23:45:12.116Z,71.90
2018-06-03T23:47:41.212Z,71.92
2018-06-03T23:50:10.288Z,71.34
2018-06-03T23:52:39.400Z,70.71
2018-06-03T23:55:08.477Z,70.81
2018-06-03T23:57:37.576Z,71.14
